Main page
METAR-TAF:

METAR-TAF

Airports :

London City Airport

London, England

latitude: 51-30N, longitude: 000-03E, elevation: 5 m

Current weather observation

The report was made 33 minutes ago, at 15:50 UTC
Wind 13 kt from the East
Temperature 20°C
Humidity 35%
Pressure 1032 hPa
Visibility 10 km or more

METAR: EGLC 281550Z AUTO 10013KT 9999 NCD 20/04 Q1032

Time: 17:23 (16:23 UTC)

Forecast

The report was made 2 hours and 26 minutes ago, at 13:57 UTC
Forecast valid from 28 at 15 UTC to 28 at 24 UTC
Wind 9 kt from the East
Visibility 10 km or more
no clouds below 1500 m and no cumulonimbus

TAF: EGLC 281357Z 2815/2824 09009KT CAVOK

Weather observations and forecasts of more than 4000 airports (METAR and TAF reports).

The available stations are represented by yellow and red dots on the map.

Hover mouse over dot to see the name of the station.

Then click to see weather observations and forecasts.

To change the map : click on the green buttons with a black cross to zoom in, on the green button with a dash to zoom out, or on the green arrows for adjacent maps.


METAR-TAF: